Time;durP1;ratioP1;P1;durP2;ratioP2;P2;SDS_P1;SDS_P2;PMS_P1;PMS_P2;Temp;Humidity;BMP_temperature;BMP_pressure;BME280_temperature;BME280_humidity;BME280_pressure;Samples;Min_cycle;Max_cycle;Signal;HPM_P1;HPM_P2
2023/12/16 00:02:04;;;;;;;12.60;5.15;;;;;;;8.94;69.72;103662.25;3605692;39;20099;-66
2023/12/16 00:04:30;;;;;;;15.75;5.20;;;;;;;8.83;70.56;103653.44;3606468;39;20070;-65
2023/12/16 00:06:56;;;;;;;12.70;5.50;;;;;;;8.95;70.18;103677.47;3607258;39;20069;-65
2023/12/16 00:09:21;;;;;;;17.08;5.93;;;;;;;8.92;69.94;103657.84;3605082;39;20054;-65
2023/12/16 00:11:47;;;;;;;16.15;5.28;;;;;;;8.96;69.81;103672.97;3606609;39;20051;-65
2023/12/16 00:14:13;;;;;;;14.30;4.63;;;;;;;8.97;69.65;103681.00;3605587;39;20061;-65
2023/12/16 00:16:46;;;;;;;16.20;4.95;;;;;;;8.98;68.98;103682.81;3608513;39;20059;-66
2023/12/16 00:19:12;;;;;;;12.13;4.75;;;;;;;9.01;69.66;103673.84;3609680;39;20059;-66
2023/12/16 00:21:37;;;;;;;11.90;4.60;;;;;;;8.99;69.36;103676.53;3609638;39;20317;-66
2023/12/16 00:24:06;;;;;;;17.73;4.85;;;;;;;8.96;68.79;103663.13;3609173;39;20067;-66
2023/12/16 00:26:32;;;;;;;16.48;4.18;;;;;;;9.01;68.55;103674.72;3610554;39;20059;-64
2023/12/16 00:28:57;;;;;;;14.32;5.00;;;;;;;9.01;69.09;103672.03;3612006;39;20319;-64
2023/12/16 00:31:23;;;;;;;12.10;4.30;;;;;;;9.00;68.76;103662.19;3610203;39;20310;-65
2023/12/16 00:33:49;;;;;;;21.08;4.20;;;;;;;9.00;68.52;103662.19;3609451;39;20055;-66
2023/12/16 00:36:15;;;;;;;16.70;4.35;;;;;;;9.01;67.97;103663.13;3609229;39;20055;-66
2023/12/16 00:38:40;;;;;;;10.93;3.45;;;;;;;8.77;68.21;103615.94;3607556;39;20058;-66
2023/12/16 00:41:07;;;;;;;11.77;3.83;;;;;;;9.00;69.22;103666.69;3606380;39;20050;-66
2023/12/16 00:43:33;;;;;;;14.20;4.50;;;;;;;9.00;69.07;103662.19;3607357;39;20074;-65
2023/12/16 00:45:58;;;;;;;17.77;4.30;;;;;;;8.92;68.95;103636.38;3606071;39;20055;-65
2023/12/16 00:48:24;;;;;;;12.40;4.35;;;;;;;8.97;68.77;103646.13;3608990;39;20067;-65
2023/12/16 00:50:49;;;;;;;14.70;4.30;;;;;;;8.99;68.28;103655.06;3606020;39;20051;-65
2023/12/16 00:53:15;;;;;;;17.92;4.30;;;;;;;8.98;68.96;103647.94;3606001;39;20047;-65
2023/12/16 00:55:41;;;;;;;12.10;3.95;;;;;;;8.98;68.94;103657.78;3605912;39;20055;-65
2023/12/16 00:58:08;;;;;;;13.25;3.70;;;;;;;8.98;68.84;103658.66;3608756;39;20051;-65
2023/12/16 01:00:33;;;;;;;16.20;4.70;;;;;;;8.98;68.52;103655.09;3605057;39;20460;-65
2023/12/16 01:02:59;;;;;;;13.15;4.25;;;;;;;8.97;68.99;103655.97;3607481;39;20054;-65
2023/12/16 01:05:25;;;;;;;16.65;5.05;;;;;;;8.96;68.85;103649.72;3608783;39;20132;-65
2023/12/16 01:07:50;;;;;;;14.38;4.07;;;;;;;8.95;68.87;103650.63;3606114;39;20441;-66
2023/12/16 01:10:16;;;;;;;14.70;4.35;;;;;;;8.92;69.44;103652.47;3606634;39;20049;-65
2023/12/16 01:12:42;;;;;;;13.20;3.97;;;;;;;8.94;68.89;103656.88;3608937;39;20057;-66
2023/12/16 01:15:08;;;;;;;13.07;4.22;;;;;;;8.95;69.00;103658.69;3607023;39;20051;-65
2023/12/16 01:17:34;;;;;;;13.45;4.45;;;;;;;8.95;69.56;103663.16;3608704;39;20119;-65
2023/12/16 01:19:59;;;;;;;13.50;3.85;;;;;;;8.91;69.55;103659.63;3611436;39;20300;-66
2023/12/16 01:22:28;;;;;;;13.57;3.78;;;;;;;8.92;69.75;103652.47;3607747;39;20066;-66
2023/12/16 01:24:54;;;;;;;13.93;4.03;;;;;;;8.92;70.29;103658.72;3607351;39;20162;-66
2023/12/16 01:27:20;;;;;;;13.18;4.10;;;;;;;8.91;70.56;103661.41;3605891;39;20517;-66
2023/12/16 01:29:45;;;;;;;11.85;3.90;;;;;;;8.91;69.73;103662.31;3612010;39;20047;-65
2023/12/16 01:32:11;;;;;;;12.52;4.07;;;;;;;8.89;70.40;103664.09;3605858;39;20399;-65
2023/12/16 01:34:36;;;;;;;12.18;3.92;;;;;;;8.87;70.05;103660.53;3604715;39;20062;-65
2023/12/16 01:37:02;;;;;;;14.30;4.15;;;;;;;8.87;69.88;103655.16;3605327;39;20339;-65
2023/12/16 01:39:28;;;;;;;13.18;3.78;;;;;;;8.86;70.11;103648.03;3605401;39;20082;-66
2023/12/16 01:41:53;;;;;;;15.70;4.20;;;;;;;8.78;70.19;103632.00;3607265;39;20039;-65
2023/12/16 01:44:19;;;;;;;17.25;4.10;;;;;;;8.85;70.03;103643.59;3611734;39;20042;-66
2023/12/16 01:46:46;;;;;;;14.07;4.10;;;;;;;8.83;69.40;103640.91;3608406;39;20415;-66
2023/12/16 01:49:12;;;;;;;15.35;4.72;;;;;;;8.74;70.13;103621.31;3607437;39;20065;-66
2023/12/16 01:51:38;;;;;;;11.10;3.78;;;;;;;8.84;70.38;103644.47;3605947;39;20078;-65
2023/12/16 01:54:06;;;;;;;14.23;4.13;;;;;;;8.80;70.62;103640.94;3606394;39;20302;-65
2023/12/16 01:56:33;;;;;;;11.18;3.58;;;;;;;8.80;70.43;103643.63;3605663;39;20202;-65
2023/12/16 01:58:59;;;;;;;11.77;3.75;;;;;;;8.79;70.49;103646.31;3604678;39;20265;-64
2023/12/16 02:01:25;;;;;;;11.70;3.80;;;;;;;8.75;69.56;103642.78;3608497;39;20087;-64
2023/12/16 02:03:52;;;;;;;9.43;3.88;;;;;;;8.77;70.51;103648.13;3604443;39;20059;-66
2023/12/16 02:06:20;;;;;;;12.50;4.28;;;;;;;8.75;69.88;103647.22;3605115;39;20047;-65
2023/12/16 02:08:46;;;;;;;11.43;3.65;;;;;;;8.69;70.01;103640.16;3603862;39;20036;-65
2023/12/16 02:11:12;;;;;;;10.77;3.67;;;;;;;8.71;69.74;103642.81;3605487;39;20119;-65
2023/12/16 02:13:37;;;;;;;11.52;3.67;;;;;;;8.69;69.83;103644.59;3605201;39;20051;-66
2023/12/16 02:16:04;;;;;;;16.48;4.35;;;;;;;8.63;70.61;103636.59;3603876;39;20054;-65
2023/12/16 02:18:30;;;;;;;11.88;3.85;;;;;;;8.63;70.06;103644.66;3605640;39;20059;-65
2023/12/16 02:20:56;;;;;;;16.40;4.35;;;;;;;8.59;70.87;103639.34;3599200;39;20116;-66
2023/12/16 02:23:21;;;;;;;9.70;3.50;;;;;;;8.56;71.13;103649.19;3606109;39;20059;-65
2023/12/16 02:25:47;;;;;;;10.27;4.28;;;;;;;8.50;71.16;103651.91;3604225;39;20055;-66
2023/12/16 02:28:13;;;;;;;16.48;4.43;;;;;;;8.43;71.45;103644.81;3608024;39;20402;-65
2023/12/16 02:30:39;;;;;;;11.73;4.05;;;;;;;8.31;71.38;103632.38;3602871;39;20054;-66
2023/12/16 02:33:04;;;;;;;11.43;3.72;;;;;;;8.27;71.56;103636.84;3606201;39;20091;-65
2023/12/16 02:35:31;;;;;;;17.17;4.07;;;;;;;8.24;71.09;103631.50;3603992;39;20069;-65
2023/12/16 02:37:56;;;;;;;13.75;4.60;;;;;;;8.18;72.07;103644.94;3607180;39;20393;-65
2023/12/16 02:40:22;;;;;;;13.13;3.70;;;;;;;8.13;71.86;103639.63;3606951;39;20051;-65
2023/12/16 02:42:47;;;;;;;13.68;4.28;;;;;;;8.07;72.35;103644.16;3605805;39;20060;-66
2023/12/16 02:45:13;;;;;;;14.57;4.68;;;;;;;8.05;72.38;103657.53;3606548;39;20035;-65
2023/12/16 02:47:38;;;;;;;10.25;4.15;;;;;;;7.99;72.47;103660.28;3605839;39;20066;-65
2023/12/16 02:50:07;;;;;;;9.73;3.78;;;;;;;7.91;73.19;103662.97;3606547;39;20399;-65
2023/12/16 02:52:32;;;;;;;8.95;3.75;;;;;;;7.62;73.38;103611.38;3605962;39;20050;-66
2023/12/16 02:54:58;;;;;;;12.32;3.65;;;;;;;7.87;73.93;103652.31;3606344;39;20047;-66
2023/12/16 02:57:24;;;;;;;10.23;3.97;;;;;;;7.90;73.54;103653.16;3606493;39;20051;-65
2023/12/16 02:59:49;;;;;;;16.63;4.97;;;;;;;7.90;74.36;103654.97;3607173;39;20050;-66
2023/12/16 03:02:15;;;;;;;16.55;4.78;;;;;;;7.90;74.02;103655.84;3605930;39;20051;-66
2023/12/16 03:04:40;;;;;;;13.27;4.05;;;;;;;7.90;74.29;103638.91;3605173;39;20411;-66
2023/12/16 03:07:06;;;;;;;12.73;4.07;;;;;;;7.91;74.19;103640.66;3604529;39;20365;-65
2023/12/16 03:09:32;;;;;;;16.45;4.20;;;;;;;7.91;74.05;103641.53;3609515;39;20059;-66
2023/12/16 03:12:00;;;;;;;11.27;4.10;;;;;;;7.84;73.50;103625.53;3608865;39;20059;-66
2023/12/16 03:14:26;;;;;;;13.35;4.50;;;;;;;7.90;73.75;103637.09;3604242;39;20059;-64
2023/12/16 03:16:52;;;;;;;16.33;4.38;;;;;;;7.89;73.81;103637.97;3607778;39;20051;-64
2023/12/16 03:19:18;;;;;;;14.07;4.05;;;;;;;7.65;74.02;103598.84;3606282;39;20090;-66
2023/12/16 03:21:43;;;;;;;10.20;4.00;;;;;;;7.88;73.42;103636.22;3604973;39;20067;-66
2023/12/16 03:24:09;;;;;;;15.88;4.22;;;;;;;7.85;73.16;103629.97;3605315;39;20059;-64
2023/12/16 03:26:35;;;;;;;14.35;5.07;;;;;;;7.88;73.94;103638.88;3603783;39;20059;-66
2023/12/16 03:29:01;;;;;;;15.00;4.25;;;;;;;7.89;73.33;103634.41;3608289;39;20431;-66
2023/12/16 03:31:26;;;;;;;17.75;5.00;;;;;;;7.89;73.21;103635.31;3605630;39;20085;-66
2023/12/16 03:33:53;;;;;;;18.23;4.30;;;;;;;7.90;73.39;103636.22;3606156;39;20051;-66
2023/12/16 03:36:19;;;;;;;11.07;4.28;;;;;;;7.90;73.86;103636.22;3607660;39;20043;-66
2023/12/16 03:38:45;;;;;;;13.40;3.60;;;;;;;7.91;73.24;103636.19;3607712;39;20641;-66
2023/12/16 03:41:12;;;;;;;13.18;4.43;;;;;;;7.67;73.18;103589.03;3604439;39;20083;-66
2023/12/16 03:43:38;;;;;;;13.63;4.32;;;;;;;7.95;73.65;103650.44;3604627;39;20071;-66
2023/12/16 03:46:04;;;;;;;12.98;3.90;;;;;;;7.97;73.18;103643.31;3607243;39;20062;-66
2023/12/16 03:48:29;;;;;;;14.70;4.55;;;;;;;7.98;73.34;103642.41;3607773;39;20050;-64
2023/12/16 03:50:55;;;;;;;13.10;4.47;;;;;;;8.01;73.37;103647.75;3604304;39;20092;-64
2023/12/16 03:53:21;;;;;;;11.23;4.18;;;;;;;8.04;74.20;103644.16;3607119;39;20066;-65
2023/12/16 03:55:47;;;;;;;11.70;4.35;;;;;;;8.06;74.24;103648.63;3604388;39;20067;-64
2023/12/16 03:58:12;;;;;;;17.98;5.10;;;;;;;8.07;74.24;103649.50;3603723;39;20394;-64
2023/12/16 04:00:38;;;;;;;12.55;4.43;;;;;;;8.10;74.23;103649.47;3604759;39;20059;-64
2023/12/16 04:03:03;;;;;;;10.40;4.45;;;;;;;8.09;74.03;103648.59;3607832;39;20043;-64
2023/12/16 04:05:29;;;;;;;15.73;4.60;;;;;;;7.84;73.58;103601.44;3606576;39;20637;-64
2023/12/16 04:07:54;;;;;;;17.30;4.38;;;;;;;8.11;73.78;103638.75;3607725;39;20069;-64
2023/12/16 04:10:20;;;;;;;11.95;4.50;;;;;;;8.14;73.69;103645.88;3606150;39;20055;-65
2023/12/16 04:12:46;;;;;;;8.43;4.18;;;;;;;8.16;73.32;103648.56;3605803;39;20083;-64
2023/12/16 04:15:12;;;;;;;14.27;4.35;;;;;;;8.20;73.38;103658.34;3607206;39;20048;-64
2023/12/16 04:17:38;;;;;;;12.15;4.22;;;;;;;8.22;73.45;103648.53;3605221;39;20057;-66
2023/12/16 04:20:04;;;;;;;13.35;4.55;;;;;;;8.20;73.34;103639.59;3606910;39;20052;-64
2023/12/16 04:22:30;;;;;;;13.15;4.47;;;;;;;8.28;72.77;103651.16;3605604;39;20058;-64
2023/12/16 04:24:57;;;;;;;13.80;4.25;;;;;;;8.29;73.11;103647.56;3606563;39;20078;-64
2023/12/16 04:27:25;;;;;;;16.23;5.07;;;;;;;8.31;72.99;103648.47;3611179;39;20059;-64
2023/12/16 04:29:50;;;;;;;14.32;4.35;;;;;;;8.31;73.34;103645.78;3609492;39;20097;-64
2023/12/16 04:32:16;;;;;;;15.20;4.00;;;;;;;8.33;73.63;103647.53;3608680;39;20379;-64
2023/12/16 04:34:42;;;;;;;15.82;4.65;;;;;;;8.26;73.57;103634.19;3605967;39;20066;-64
2023/12/16 04:37:07;;;;;;;11.23;4.22;;;;;;;8.33;73.26;103644.84;3610270;39;20391;-64
2023/12/16 04:39:33;;;;;;;11.27;4.28;;;;;;;8.32;73.00;103639.50;3605092;39;20062;-64
2023/12/16 04:41:58;;;;;;;11.00;4.30;;;;;;;8.30;73.27;103644.00;3607380;39;20050;-64
2023/12/16 04:44:24;;;;;;;13.07;4.03;;;;;;;8.26;73.71;103634.19;3606884;39;20052;-64
2023/12/16 04:46:49;;;;;;;14.70;4.75;;;;;;;8.21;73.65;103627.97;3609053;39;20066;-64
2023/12/16 04:49:15;;;;;;;14.30;4.50;;;;;;;8.22;73.48;103629.78;3608784;39;20062;-63
2023/12/16 04:51:41;;;;;;;13.10;4.03;;;;;;;8.21;74.07;103625.28;3609191;39;20083;-65
2023/12/16 04:54:07;;;;;;;15.20;4.50;;;;;;;8.20;74.41;103628.88;3608321;39;20384;-64
2023/12/16 04:56:32;;;;;;;11.32;4.25;;;;;;;8.20;74.49;103626.19;3608285;39;20291;-64
2023/12/16 04:58:58;;;;;;;12.73;4.35;;;;;;;8.16;74.01;103628.00;3607380;39;20066;-64
2023/12/16 05:01:23;;;;;;;10.82;4.20;;;;;;;8.12;74.29;103627.16;3609781;39;20059;-64
2023/12/16 05:03:49;;;;;;;20.33;4.78;;;;;;;8.10;74.53;103634.28;3609073;39;20050;-64
2023/12/16 05:06:14;;;;;;;15.95;5.53;;;;;;;8.05;75.25;103625.38;3608705;39;20054;-64
2023/12/16 05:08:40;;;;;;;15.18;4.47;;;;;;;8.06;74.60;103631.66;3607278;39;20454;-64
2023/12/16 05:11:05;;;;;;;13.68;4.40;;;;;;;8.02;74.66;103632.56;3608320;39;20055;-65
2023/12/16 05:13:31;;;;;;;11.73;4.03;;;;;;;7.99;75.10;103636.16;3610056;39;20051;-65
2023/12/16 05:15:56;;;;;;;14.88;4.55;;;;;;;7.96;75.43;103636.19;3607802;39;20429;-65
2023/12/16 05:18:23;;;;;;;12.85;4.45;;;;;;;7.93;76.46;103630.84;3606648;39;20089;-65
2023/12/16 05:20:50;;;;;;;10.07;4.15;;;;;;;7.94;75.84;103637.09;3605568;39;20051;-64
2023/12/16 05:23:15;;;;;;;17.50;4.32;;;;;;;7.88;76.07;103638.88;3602441;39;20050;-65
2023/12/16 05:25:41;;;;;;;12.40;3.90;;;;;;;7.84;75.92;103639.81;3605308;39;20054;-66
2023/12/16 05:28:08;;;;;;;15.80;4.43;;;;;;;7.83;75.82;103647.84;3606553;39;20311;-64
2023/12/16 05:30:34;;;;;;;15.05;4.60;;;;;;;7.80;76.28;103646.09;3608149;39;20272;-65
2023/12/16 05:32:59;;;;;;;15.10;4.47;;;;;;;7.79;76.56;103646.06;3607862;39;20038;-65
2023/12/16 05:35:25;;;;;;;14.68;4.20;;;;;;;7.77;76.51;103647.88;3608512;39;20047;-64
2023/12/16 05:37:50;;;;;;;16.80;4.80;;;;;;;7.77;76.77;103651.47;3605459;39;20070;-65
2023/12/16 05:40:16;;;;;;;13.52;4.50;;;;;;;7.75;76.18;103647.00;3607493;39;20051;-65
2023/12/16 05:42:42;;;;;;;15.25;4.10;;;;;;;7.73;76.94;103646.09;3607877;39;20067;-65
2023/12/16 05:45:08;;;;;;;12.82;4.70;;;;;;;7.57;77.18;103631.91;3610032;39;20103;-65
2023/12/16 05:47:35;;;;;;;18.45;4.75;;;;;;;7.36;76.94;103600.78;3605207;39;20047;-65
2023/12/16 05:50:03;;;;;;;11.40;4.15;;;;;;;7.43;77.02;103616.78;3607510;39;20053;-65
2023/12/16 05:52:30;;;;;;;16.30;4.88;;;;;;;7.61;77.21;103656.00;3605844;39;20040;-65
2023/12/16 05:54:55;;;;;;;18.52;3.83;;;;;;;7.61;77.38;103649.72;3608023;39;20059;-65
2023/12/16 05:57:21;;;;;;;10.85;4.20;;;;;;;7.59;77.05;103647.06;3609955;39;20527;-65
2023/12/16 05:59:47;;;;;;;19.80;4.35;;;;;;;7.57;77.10;103642.59;3606090;39;20047;-65
2023/12/16 06:02:12;;;;;;;12.95;3.83;;;;;;;7.52;77.85;103631.94;3606531;39;20055;-65
2023/12/16 06:04:38;;;;;;;15.68;4.75;;;;;;;7.48;78.17;103631.94;3606538;39;20054;-65
2023/12/16 06:07:04;;;;;;;15.65;4.40;;;;;;;7.47;78.12;103630.16;3608425;39;20051;-65
2023/12/16 06:09:29;;;;;;;11.80;3.65;;;;;;;7.44;78.59;103626.59;3609438;39;20051;-65
2023/12/16 06:11:55;;;;;;;13.45;4.00;;;;;;;7.43;77.88;103637.31;3608942;39;20597;-65
2023/12/16 06:14:21;;;;;;;13.07;3.80;;;;;;;7.43;78.57;103635.53;3607380;39;20458;-65
2023/12/16 06:16:47;;;;;;;13.57;4.32;;;;;;;7.44;77.86;103649.78;3605243;39;20066;-65
2023/12/16 06:19:12;;;;;;;11.10;3.50;;;;;;;7.41;78.55;103652.47;3607641;39;20096;-65
2023/12/16 06:21:38;;;;;;;14.00;3.90;;;;;;;7.40;78.89;103646.25;3608025;39;20049;-65
2023/12/16 06:24:05;;;;;;;9.10;3.40;;;;;;;7.39;78.56;103643.53;3606939;39;20058;-65
2023/12/16 06:26:31;;;;;;;19.10;4.13;;;;;;;7.35;78.63;103640.00;3608756;39;20658;-65
2023/12/16 06:28:57;;;;;;;15.15;4.65;;;;;;;7.36;79.22;103646.28;3606530;39;20075;-66
2023/12/16 06:31:22;;;;;;;13.43;5.03;;;;;;;7.33;79.36;103638.25;3608387;39;20058;-65
2023/12/16 06:33:48;;;;;;;14.65;4.97;;;;;;;7.33;79.23;103644.47;3607407;39;20128;-66
2023/12/16 06:36:15;;;;;;;13.52;3.95;;;;;;;7.33;79.09;103638.25;3605091;39;20445;-65
2023/12/16 06:38:41;;;;;;;15.05;4.88;;;;;;;7.33;78.91;103639.13;3604474;39;20138;-66
2023/12/16 06:41:06;;;;;;;13.93;3.50;;;;;;;7.32;78.31;103644.47;3610026;39;20051;-66
2023/12/16 06:43:32;;;;;;;17.90;5.82;;;;;;;7.30;78.87;103640.94;3600770;39;20055;-65
2023/12/16 06:45:58;;;;;;;13.45;4.40;;;;;;;7.29;78.61;103639.13;3607276;39;20065;-64
2023/12/16 06:48:23;;;;;;;11.25;4.22;;;;;;;7.27;78.86;103638.25;3610387;39;20039;-66
2023/12/16 06:50:57;;;;;;;21.40;6.13;;;;;;;7.22;78.98;103636.47;3607370;39;20070;-66
2023/12/16 06:53:23;;;;;;;19.48;4.70;;;;;;;6.54;78.98;103521.66;3605033;39;20043;-65
2023/12/16 06:55:48;;;;;;;12.90;4.65;;;;;;;7.17;79.89;103637.41;3605821;39;20053;-65
2023/12/16 06:58:14;;;;;;;17.55;4.38;;;;;;;7.18;79.96;103644.53;3608003;39;20057;-64
2023/12/16 07:00:40;;;;;;;14.73;3.95;;;;;;;7.15;79.80;103652.56;3608899;39;20085;-65
2023/12/16 07:03:05;;;;;;;14.90;4.13;;;;;;;7.13;79.28;103647.19;3607574;39;20066;-65
2023/12/16 07:05:34;;;;;;;15.65;4.25;;;;;;;7.12;79.54;103645.41;3606957;39;20058;-65
2023/12/16 07:08:00;;;;;;;10.63;3.72;;;;;;;7.11;79.90;103643.66;3605611;39;20063;-65
2023/12/16 07:10:26;;;;;;;14.50;4.13;;;;;;;7.10;79.67;103647.19;3605684;39;20062;-66
2023/12/16 07:12:51;;;;;;;18.67;4.40;;;;;;;7.12;79.75;103650.75;3607066;39;20051;-66
2023/12/16 07:15:17;;;;;;;14.43;4.18;;;;;;;7.03;79.70;103642.75;3608159;39;20050;-66
2023/12/16 07:17:44;;;;;;;14.80;4.30;;;;;;;7.08;80.45;103659.69;3608812;39;20051;-66
2023/12/16 07:20:10;;;;;;;7.97;3.58;;;;;;;7.09;79.99;103658.78;3606626;39;20304;-66
2023/12/16 07:22:37;;;;;;;13.90;4.00;;;;;;;7.09;79.91;103661.47;3607174;39;20051;-66
2023/12/16 07:25:04;;;;;;;14.30;3.78;;;;;;;7.05;79.81;103658.81;3606829;39;20047;-64
2023/12/16 07:27:30;;;;;;;14.05;4.28;;;;;;;7.07;80.50;103657.94;3608056;39;20054;-64
2023/12/16 07:29:56;;;;;;;11.13;3.55;;;;;;;7.05;80.21;103665.06;3605148;39;20067;-65
2023/12/16 07:32:23;;;;;;;10.57;3.90;;;;;;;6.91;80.73;103653.47;3605787;39;20051;-65
2023/12/16 07:34:50;;;;;;;15.95;4.00;;;;;;;7.04;80.57;103678.41;3606440;39;20046;-65
2023/12/16 07:37:16;;;;;;;18.20;4.82;;;;;;;7.06;80.34;103674.84;3607190;39;20135;-65
2023/12/16 07:39:42;;;;;;;14.05;4.03;;;;;;;7.06;80.30;103682.88;3606407;39;20051;-66
2023/12/16 07:42:08;;;;;;;9.98;3.45;;;;;;;7.06;80.28;103682.88;3607879;39;20077;-66
2023/12/16 07:44:34;;;;;;;14.48;3.55;;;;;;;7.07;80.63;103673.06;3605578;39;20066;-66
2023/12/16 07:46:59;;;;;;;16.08;4.40;;;;;;;7.08;80.20;103677.53;3607050;39;20063;-66
2023/12/16 07:49:25;;;;;;;15.82;4.13;;;;;;;7.11;80.03;103678.41;3606840;39;20112;-66
2023/12/16 07:51:52;;;;;;;13.63;4.40;;;;;;;7.12;79.49;103688.22;3608088;39;20057;-66
2023/12/16 07:54:18;;;;;;;15.15;4.13;;;;;;;7.14;80.32;103680.22;3606616;39;20128;-65
2023/12/16 07:56:43;;;;;;;13.25;4.45;;;;;;;7.14;80.12;103681.09;3603298;39;20091;-64
2023/12/16 07:59:09;;;;;;;10.88;3.65;;;;;;;7.17;79.56;103688.22;3606914;39;20054;-65
2023/12/16 08:01:34;;;;;;;14.57;4.03;;;;;;;7.21;79.57;103682.84;3610352;39;20051;-65
2023/12/16 08:04:00;;;;;;;11.00;3.42;;;;;;;7.25;79.92;103672.16;3607500;39;20419;-65
2023/12/16 08:06:25;;;;;;;13.70;3.30;;;;;;;7.26;79.82;103690.84;3606292;39;20048;-66
2023/12/16 08:08:51;;;;;;;10.65;3.10;;;;;;;7.28;78.88;103685.53;3609473;39;20055;-65
2023/12/16 08:11:17;;;;;;;19.02;4.13;;;;;;;7.29;79.55;103696.19;3607629;39;20136;-65
2023/12/16 08:13:42;;;;;;;12.38;3.40;;;;;;;7.31;79.19;103698.88;3609351;39;20051;-65
2023/12/16 08:16:10;;;;;;;15.85;3.55;;;;;;;7.07;79.25;103665.94;3610176;39;20057;-65
2023/12/16 08:18:35;;;;;;;14.95;4.00;;;;;;;7.32;78.89;103711.38;3607957;39;20078;-65
2023/12/16 08:21:01;;;;;;;12.40;3.40;;;;;;;7.35;78.97;103703.34;3608115;39;20430;-67
2023/12/16 08:23:27;;;;;;;12.55;3.47;;;;;;;7.36;78.90;103710.50;3608350;39;20046;-66
2023/12/16 08:25:52;;;;;;;16.13;5.20;;;;;;;7.37;79.35;103712.25;3610430;39;20405;-65
2023/12/16 08:28:18;;;;;;;10.95;3.42;;;;;;;7.38;78.76;103711.34;3609333;39;20050;-66
2023/12/16 08:30:44;;;;;;;11.90;3.42;;;;;;;7.40;78.76;103714.94;3607908;39;20051;-66
2023/12/16 08:33:10;;;;;;;11.45;3.40;;;;;;;7.43;79.44;103720.28;3600488;39;20059;-66
2023/12/16 08:35:39;;;;;;;10.90;3.03;;;;;;;7.54;78.69;103726.47;3607299;39;20323;-66
2023/12/16 08:38:04;;;;;;;9.55;3.67;;;;;;;7.45;78.57;103686.34;3608156;39;20333;-66
2023/12/16 08:40:30;;;;;;;20.02;5.40;;;;;;;7.69;79.04;103714.84;3601300;39;20040;-65
2023/12/16 08:42:56;;;;;;;14.00;4.00;;;;;;;7.76;78.24;103713.03;3608294;39;20051;-65
2023/12/16 08:45:21;;;;;;;9.73;3.03;;;;;;;7.82;78.22;103716.56;3608921;39;20053;-65
2023/12/16 08:47:47;;;;;;;14.75;3.55;;;;;;;7.88;78.87;103719.22;3608651;39;20051;-65
2023/12/16 08:50:12;;;;;;;13.75;3.65;;;;;;;7.97;78.39;103712.97;3609944;39;20066;-65
2023/12/16 08:52:38;;;;;;;16.15;3.83;;;;;;;8.04;78.37;103709.34;3609787;39;20058;-65
2023/12/16 08:55:05;;;;;;;17.35;4.15;;;;;;;8.12;78.24;103718.25;3608671;39;20051;-66
2023/12/16 08:57:31;;;;;;;17.88;3.88;;;;;;;8.20;79.00;103719.97;3608684;39;21564;-66
2023/12/16 08:59:57;;;;;;;10.15;3.15;;;;;;;8.24;78.76;103711.91;3608815;39;20047;-65
2023/12/16 09:02:23;;;;;;;12.65;3.28;;;;;;;8.13;78.64;103677.16;3609118;39;20099;-65
2023/12/16 09:04:50;;;;;;;14.65;3.63;;;;;;;8.13;78.63;103665.53;3607499;39;20039;-65
2023/12/16 09:07:16;;;;;;;13.68;3.65;;;;;;;8.39;78.81;103702.94;3606592;39;20050;-64
2023/12/16 09:09:44;;;;;;;15.77;3.83;;;;;;;8.12;78.54;103653.94;3608763;39;20086;-65
2023/12/16 09:12:11;;;;;;;11.18;3.17;;;;;;;8.49;78.41;103707.31;3606566;39;20047;-65
2023/12/16 09:14:38;;;;;;;14.75;3.65;;;;;;;8.25;77.99;103669.94;3607271;39;20094;-65
2023/12/16 09:17:04;;;;;;;11.32;3.50;;;;;;;8.63;77.60;103722.41;3607445;39;20382;-65
2023/12/16 09:19:30;;;;;;;12.38;3.75;;;;;;;8.67;78.53;103722.41;3608300;39;20380;-65
2023/12/16 09:21:55;;;;;;;13.88;3.53;;;;;;;8.73;78.37;103722.34;3597830;39;20061;-66
2023/12/16 09:24:21;;;;;;;12.70;3.85;;;;;;;8.76;77.80;103722.34;3607270;39;20060;-65
2023/12/16 09:26:47;;;;;;;11.57;3.30;;;;;;;8.79;77.94;103719.63;3607506;39;20066;-65
2023/12/16 09:29:13;;;;;;;14.55;3.67;;;;;;;8.86;78.50;103728.50;3606998;39;20067;-65
2023/12/16 09:31:39;;;;;;;15.48;4.20;;;;;;;8.89;77.82;103728.50;3609555;39;20123;-65
2023/12/16 09:34:05;;;;;;;13.38;3.00;;;;;;;8.97;78.65;103729.28;3608192;39;20249;-65
2023/12/16 09:36:31;;;;;;;16.20;4.05;;;;;;;9.02;78.31;103735.53;3607750;39;20050;-65
2023/12/16 09:38:57;;;;;;;21.63;6.22;;;;;;;9.07;78.91;103744.44;3605645;39;20048;-65
2023/12/16 09:41:29;;;;;;;14.20;3.80;;;;;;;9.15;78.30;103748.84;3608019;39;20051;-66
2023/12/16 09:44:03;;;;;;;11.60;3.35;;;;;;;9.21;78.77;103746.97;3605886;39;20039;-65
2023/12/16 09:46:35;;;;;;;16.55;3.67;;;;;;;9.24;78.15;103740.72;3609775;39;20066;-64
2023/12/16 09:49:02;;;;;;;14.90;3.45;;;;;;;9.28;78.83;103737.97;3606564;39;20483;-64
2023/12/16 09:51:28;;;;;;;14.10;3.78;;;;;;;9.32;77.87;103737.94;3609727;39;20338;-65
2023/12/16 09:53:55;;;;;;;14.30;3.83;;;;;;;9.39;78.36;103745.03;3607679;39;20128;-65
2023/12/16 09:56:21;;;;;;;18.00;4.40;;;;;;;9.40;78.84;103746.81;3609627;39;20043;-66
2023/12/16 09:58:51;;;;;;;15.38;4.38;;;;;;;9.43;78.11;103742.31;3606753;39;20093;-64
2023/12/16 10:01:17;;;;;;;15.43;3.92;;;;;;;9.22;78.11;103699.56;3607674;39;20054;-64
2023/12/16 10:03:47;;;;;;;14.73;4.05;;;;;;;9.53;78.16;103749.34;3605657;39;20059;-65
2023/12/16 10:06:14;;;;;;;18.13;4.00;;;;;;;9.54;78.51;103753.81;3598905;39;20288;-65
2023/12/16 10:08:41;;;;;;;12.82;4.00;;;;;;;9.38;78.43;103719.09;3606469;39;20095;-64
2023/12/16 10:11:07;;;;;;;13.52;4.75;;;;;;;9.66;78.46;103759.97;3606349;39;20051;-65
2023/12/16 10:13:55;;;;;;;15.23;4.30;;;;;;;9.68;78.56;103758.16;3610105;39;20046;-65
2023/12/16 10:16:24;;;;;;;13.77;3.85;;;;;;;9.53;78.47;103724.28;3609750;39;20064;-65
2023/12/16 10:18:55;;;;;;;11.65;3.90;;;;;;;9.76;78.55;103761.63;3606514;39;20096;-65
2023/12/16 10:21:28;;;;;;;16.65;4.28;;;;;;;9.77;78.82;103753.56;3608737;39;20051;-65
2023/12/16 10:23:57;;;;;;;11.20;3.45;;;;;;;9.80;78.00;103755.34;3606238;39;20124;-65
2023/12/16 10:26:23;;;;;;;14.70;4.45;;;;;;;9.77;78.69;103750.00;3607029;39;20058;-65
2023/12/16 10:28:52;;;;;;;16.52;4.80;;;;;;;9.81;78.84;103754.44;3609130;39;20301;-64
2023/12/16 10:31:18;;;;;;;17.17;5.68;;;;;;;9.80;79.04;103739.22;3600450;39;20531;-65
2023/12/16 10:33:48;;;;;;;19.58;4.82;;;;;;;9.86;79.30;103754.34;3607935;39;20264;-65
2023/12/16 10:36:15;;;;;;;16.23;5.13;;;;;;;9.87;79.11;103750.78;3599825;39;20054;-65
2023/12/16 10:38:41;;;;;;;16.05;4.88;;;;;;;9.71;79.67;103726.78;3607864;39;20063;-65
2023/12/16 10:41:08;;;;;;;15.77;4.80;;;;;;;9.77;79.68;103733.88;3607539;39;20111;-65
2023/12/16 10:43:34;;;;;;;16.27;4.97;;;;;;;9.94;79.46;103748.00;3599430;39;20046;-65
2023/12/16 10:46:05;;;;;;;14.98;4.65;;;;;;;9.90;79.54;103738.19;3606665;39;20036;-64
2023/12/16 10:48:36;;;;;;;16.33;5.07;;;;;;;9.87;79.72;103724.81;3608941;39;20118;-64
2023/12/16 10:51:05;;;;;;;14.00;4.90;;;;;;;9.99;80.51;103747.94;3604398;39;20053;-64
2023/12/16 10:53:43;;;;;;;17.13;5.05;;;;;;;10.02;79.93;103749.69;3607971;39;20076;-65
2023/12/16 10:56:30;;;;;;;18.58;5.25;;;;;;;10.03;80.47;103743.41;3608067;39;20070;-65
2023/12/16 10:59:14;;;;;;;19.00;5.85;;;;;;;10.04;80.09;103742.50;3607169;39;20073;-65
2023/12/16 11:01:46;;;;;;;17.42;5.20;;;;;;;10.05;80.92;103730.84;3607825;39;20302;-65
2023/12/16 11:04:24;;;;;;;19.42;4.93;;;;;;;10.08;81.22;103731.69;3607687;39;20281;-65
2023/12/16 11:07:17;;;;;;;21.67;5.88;;;;;;;9.97;81.33;103710.34;3607966;39;20058;-65
2023/12/16 11:09:43;;;;;;;11.88;4.57;;;;;;;10.12;81.28;103737.94;3609203;39;20190;-65
2023/12/16 11:12:10;;;;;;;15.18;5.15;;;;;;;10.11;81.45;103734.31;3597258;39;20407;-65
2023/12/16 11:14:39;;;;;;;17.63;5.55;;;;;;;10.13;81.78;103728.94;3598720;39;20108;-66
2023/12/16 11:18:13;;;;;;;12.75;4.70;;;;;;;10.14;82.68;103730.72;3607553;39;20075;-67
2023/12/16 11:20:44;;;;;;;19.30;5.18;;;;;;;10.16;82.13;103723.53;3539636;40;20052;-65
2023/12/16 11:23:10;;;;;;;16.70;5.22;;;;;;;10.07;82.32;103707.53;3550158;40;20068;-65